createdAt,value
2022-11-13T00:01:12.729Z,14.57
2022-11-13T00:03:40.853Z,9.57
2022-11-13T00:06:09.596Z,11.90
2022-11-13T00:08:37.706Z,12.17
2022-11-13T00:11:08.431Z,14.40
2022-11-13T00:13:37.116Z,9.87
2022-11-13T00:16:07.529Z,10.07
2022-11-13T00:18:37.841Z,15.57
2022-11-13T00:21:07.486Z,14.67
2022-11-13T00:23:36.339Z,12.90
2022-11-13T00:26:09.051Z,13.20
2022-11-13T00:28:37.439Z,11.87
2022-11-13T00:31:06.744Z,12.00
2022-11-13T00:34:05.150Z,11.80
2022-11-13T00:36:26.806Z,11.40
2022-11-13T00:38:55.725Z,8.90
2022-11-13T00:41:24.000Z,10.47
2022-11-13T00:43:52.354Z,11.57
2022-11-13T00:46:20.903Z,9.27
2022-11-13T00:48:50.482Z,10.13
2022-11-13T00:51:19.734Z,11.23
2022-11-13T00:53:47.940Z,12.40
2022-11-13T00:56:16.056Z,14.73
2022-11-13T00:58:44.195Z,10.10
2022-11-13T01:01:15.506Z,9.97
2022-11-13T01:03:44.158Z,13.80
2022-11-13T01:06:15.973Z,11.27
2022-11-13T01:08:44.093Z,12.80
2022-11-13T01:11:14.320Z,15.00
2022-11-13T01:13:44.538Z,10.83
2022-11-13T01:16:14.602Z,9.63
2022-11-13T01:18:43.433Z,13.23
2022-11-13T01:21:15.056Z,12.20
2022-11-13T01:23:43.607Z,8.83
2022-11-13T01:26:14.499Z,10.33
2022-11-13T01:28:43.495Z,9.03
2022-11-13T01:31:15.226Z,9.00
2022-11-13T01:33:43.459Z,9.13
2022-11-13T01:36:16.448Z,9.10
2022-11-13T01:38:44.482Z,10.73
2022-11-13T01:41:23.098Z,10.87
2022-11-13T01:43:52.619Z,9.53
2022-11-13T01:46:29.756Z,10.67
2022-11-13T01:49:13.470Z,11.40
2022-11-13T01:51:50.311Z,8.00
2022-11-13T01:54:23.047Z,10.57
2022-11-13T01:56:52.732Z,10.17
2022-11-13T01:59:25.434Z,13.20
2022-11-13T02:01:54.651Z,7.53
2022-11-13T02:04:23.464Z,10.50
2022-11-13T02:06:55.514Z,10.23
2022-11-13T02:09:27.898Z,14.03
2022-11-13T02:11:57.061Z,11.80
2022-11-13T02:14:29.859Z,14.83
2022-11-13T02:17:01.692Z,9.60
2022-11-13T02:19:33.135Z,8.47
2022-11-13T02:22:12.395Z,14.43
2022-11-13T02:24:45.517Z,10.23
2022-11-13T02:27:21.350Z,9.57
2022-11-13T02:29:49.632Z,13.63
2022-11-13T02:32:17.772Z,21.80
2022-11-13T02:34:45.889Z,10.03
2022-11-13T02:37:14.039Z,9.27
2022-11-13T02:39:43.662Z,9.93
2022-11-13T02:42:11.752Z,12.70
2022-11-13T02:44:39.834Z,11.53
2022-11-13T02:47:07.898Z,9.77
2022-11-13T02:49:36.019Z,8.60
2022-11-13T02:52:04.113Z,12.53
2022-11-13T02:54:32.269Z,8.73
2022-11-13T02:57:01.788Z,10.43
2022-11-13T02:59:29.871Z,9.70
2022-11-13T03:01:58.007Z,7.53
2022-11-13T03:04:31.522Z,10.47
2022-11-13T03:07:12.452Z,8.63
2022-11-13T03:09:40.833Z,11.23
2022-11-13T03:12:11.572Z,10.53
2022-11-13T03:14:39.670Z,13.40
2022-11-13T03:17:07.756Z,9.30
2022-11-13T03:19:35.826Z,8.80
2022-11-13T03:22:03.943Z,11.60
2022-11-13T03:24:32.181Z,11.27
2022-11-13T03:27:00.290Z,10.23
2022-11-13T03:29:29.775Z,11.50
2022-11-13T03:31:57.871Z,13.97
2022-11-13T03:34:26.963Z,7.60
2022-11-13T03:36:55.062Z,7.10
2022-11-13T03:39:23.176Z,9.33
2022-11-13T03:41:51.302Z,10.70
2022-11-13T03:44:19.345Z,7.33
2022-11-13T03:46:48.864Z,7.60
2022-11-13T03:49:16.990Z,9.33
2022-11-13T03:51:45.086Z,9.47
2022-11-13T03:54:13.227Z,9.87
2022-11-13T03:56:41.411Z,9.27
2022-11-13T03:59:09.651Z,8.17
2022-11-13T04:01:37.804Z,7.83
2022-11-13T04:04:07.395Z,8.60
2022-11-13T04:06:35.645Z,7.93
2022-11-13T04:09:03.759Z,6.90
2022-11-13T04:11:31.839Z,12.87
2022-11-13T04:13:59.997Z,8.87
2022-11-13T04:16:28.103Z,11.90
2022-11-13T04:18:56.255Z,11.17
2022-11-13T04:21:25.956Z,7.87
2022-11-13T04:23:54.079Z,7.83
2022-11-13T04:26:22.197Z,9.50
2022-11-13T04:28:50.394Z,10.47
2022-11-13T04:31:18.507Z,8.00
2022-11-13T04:33:46.708Z,11.37
2022-11-13T04:36:15.066Z,9.67
2022-11-13T04:38:44.920Z,9.33
2022-11-13T04:41:31.268Z,8.83
2022-11-13T04:43:59.428Z,18.33
2022-11-13T04:46:27.513Z,9.63
2022-11-13T04:48:55.635Z,10.70
2022-11-13T04:51:23.827Z,8.80
2022-11-13T04:53:53.340Z,13.40
2022-11-13T04:56:21.460Z,7.77
2022-11-13T04:58:49.668Z,7.70
2022-11-13T05:01:17.895Z,8.40
2022-11-13T05:03:46.023Z,14.60
2022-11-13T05:06:14.114Z,13.53
2022-11-13T05:08:42.243Z,11.97
2022-11-13T05:11:11.791Z,12.03
2022-11-13T05:13:39.913Z,12.13
2022-11-13T05:16:10.130Z,11.30
2022-11-13T05:18:39.937Z,12.27
2022-11-13T05:21:09.551Z,10.83
2022-11-13T05:23:38.043Z,13.27
2022-11-13T05:26:08.354Z,8.40
2022-11-13T05:28:38.140Z,10.53
2022-11-13T05:31:08.006Z,9.23
2022-11-13T05:33:36.658Z,8.07
2022-11-13T05:36:06.270Z,9.60
2022-11-13T05:38:34.943Z,11.17
2022-11-13T05:41:04.513Z,12.67
2022-11-13T05:43:32.782Z,8.70
2022-11-13T05:46:03.527Z,8.67
2022-11-13T05:48:32.151Z,7.50
2022-11-13T05:51:05.566Z,8.63
2022-11-13T05:53:35.491Z,11.03
2022-11-13T05:56:04.639Z,10.27
2022-11-13T05:58:33.466Z,9.93
2022-11-13T06:01:18.839Z,12.93
2022-11-13T06:03:47.803Z,9.90
2022-11-13T06:06:17.742Z,12.80
2022-11-13T06:08:46.489Z,13.10
2022-11-13T06:11:16.477Z,14.27
2022-11-13T06:13:44.926Z,11.73
2022-11-13T06:16:14.399Z,10.70
2022-11-13T06:18:45.626Z,14.40
2022-11-13T06:21:15.787Z,13.47
2022-11-13T06:23:44.435Z,11.07
2022-11-13T06:26:14.370Z,11.80
2022-11-13T06:28:42.674Z,11.77
2022-11-13T06:31:13.110Z,15.80
2022-11-13T06:33:43.723Z,19.03
2022-11-13T06:36:13.770Z,13.70
2022-11-13T06:38:42.705Z,19.43
2022-11-13T06:41:12.457Z,15.50
2022-11-13T06:43:41.068Z,16.30
2022-11-13T06:46:13.192Z,23.00
2022-11-13T06:48:41.475Z,9.90
2022-11-13T06:51:18.250Z,17.03
2022-11-13T06:53:46.953Z,12.67
2022-11-13T06:56:15.904Z,17.63
2022-11-13T06:58:44.929Z,14.40
2022-11-13T07:01:15.257Z,12.10
2022-11-13T07:03:44.150Z,13.20
2022-11-13T07:06:15.756Z,16.37
2022-11-13T07:08:44.475Z,11.67
2022-11-13T07:11:14.907Z,12.80
2022-11-13T07:13:43.413Z,13.87
2022-11-13T07:16:17.488Z,12.23
2022-11-13T07:18:46.023Z,18.80
2022-11-13T07:21:15.555Z,12.83
2022-11-13T07:23:44.666Z,8.70
2022-11-13T07:26:12.957Z,13.37
2022-11-13T07:28:41.272Z,11.40
2022-11-13T07:31:12.293Z,9.20
2022-11-13T07:33:40.551Z,7.50
2022-11-13T07:36:09.951Z,7.43
2022-11-13T07:38:39.557Z,9.43
2022-11-13T07:41:07.925Z,11.00
2022-11-13T07:43:36.452Z,17.50
2022-11-13T07:46:04.835Z,15.63
2022-11-13T07:48:32.955Z,10.50
2022-11-13T07:51:02.606Z,9.73
2022-11-13T07:53:31.406Z,12.30
2022-11-13T07:56:03.281Z,15.53
2022-11-13T07:58:31.971Z,13.07
2022-11-13T08:01:04.325Z,12.50
2022-11-13T08:03:32.834Z,10.80
2022-11-13T08:06:05.304Z,13.50
2022-11-13T08:08:33.831Z,12.23
2022-11-13T08:11:06.657Z,13.53
2022-11-13T08:13:35.180Z,20.37
2022-11-13T08:16:04.358Z,15.73
2022-11-13T08:18:33.280Z,11.77
2022-11-13T08:21:03.821Z,14.43
2022-11-13T08:23:32.065Z,17.17
2022-11-13T08:26:04.464Z,15.60
2022-11-13T08:28:34.250Z,13.70
2022-11-13T08:31:03.004Z,16.40
2022-11-13T08:33:32.057Z,18.53
2022-11-13T08:36:02.455Z,13.77
2022-11-13T08:38:30.858Z,11.90
2022-11-13T08:41:04.395Z,13.97
2022-11-13T08:43:36.882Z,13.00
2022-11-13T08:46:05.012Z,13.60
2022-11-13T08:48:33.343Z,17.70
2022-11-13T08:51:01.679Z,23.07
2022-11-13T08:53:30.168Z,14.60
2022-11-13T08:56:01.939Z,17.53
2022-11-13T08:58:30.735Z,17.40
2022-11-13T09:01:02.901Z,14.13
2022-11-13T09:03:31.330Z,15.00
2022-11-13T09:05:59.659Z,12.27
2022-11-13T09:08:28.073Z,16.70
2022-11-13T09:10:56.305Z,12.30
2022-11-13T09:13:24.512Z,13.10
2022-11-13T09:15:52.583Z,18.63
2022-11-13T09:18:22.120Z,11.87
2022-11-13T09:20:50.211Z,14.23
2022-11-13T09:23:18.314Z,12.03
2022-11-13T09:25:46.443Z,14.47
2022-11-13T09:28:14.671Z,14.10
2022-11-13T09:30:42.825Z,14.30
2022-11-13T09:33:15.388Z,15.67
2022-11-13T09:35:45.302Z,11.20
2022-11-13T09:38:15.699Z,10.27
2022-11-13T09:40:48.800Z,12.50
2022-11-13T09:43:28.481Z,15.43
2022-11-13T09:46:00.988Z,9.90
2022-11-13T09:48:35.468Z,12.90
2022-11-13T09:51:11.960Z,8.93
2022-11-13T09:53:41.834Z,9.13
2022-11-13T09:56:26.686Z,10.70
2022-11-13T09:59:02.398Z,10.23
2022-11-13T10:01:39.507Z,11.43
2022-11-13T10:04:14.489Z,10.53
2022-11-13T10:07:03.270Z,9.83
2022-11-13T10:09:42.916Z,9.93
2022-11-13T10:12:14.089Z,15.50
2022-11-13T10:14:46.159Z,9.10
2022-11-13T10:17:21.494Z,7.90
2022-11-13T10:19:57.926Z,10.77
2022-11-13T10:22:34.562Z,16.00
2022-11-13T10:25:13.347Z,16.90
2022-11-13T10:27:41.863Z,9.60
2022-11-13T10:31:04.914Z,14.97
2022-11-13T10:33:34.624Z,12.60
2022-11-13T10:36:09.569Z,9.20
2022-11-13T10:38:44.875Z,15.20
2022-11-13T10:41:15.129Z,14.10
2022-11-13T10:43:53.949Z,18.93
2022-11-13T10:46:24.486Z,18.33
2022-11-13T10:48:52.850Z,15.23
2022-11-13T10:51:25.437Z,15.37
2022-11-13T10:53:55.546Z,13.37
2022-11-13T10:56:29.565Z,15.13
2022-11-13T10:59:02.836Z,17.10
2022-11-13T11:01:31.665Z,23.97
2022-11-13T11:03:59.814Z,31.20
2022-11-13T11:09:32.227Z,27.20
2022-11-13T11:12:23.158Z,18.60
2022-11-13T11:15:11.560Z,19.00
2022-11-13T11:17:45.387Z,22.63
2022-11-13T11:20:24.676Z,21.07
2022-11-13T11:23:04.908Z,21.47
2022-11-13T11:25:40.583Z,29.47
2022-11-13T11:28:15.939Z,29.50
2022-11-13T11:30:51.594Z,31.93
2022-11-13T11:33:27.173Z,26.73
2022-11-13T11:36:01.253Z,16.53
2022-11-13T11:38:35.293Z,30.33
2022-11-13T11:41:16.278Z,14.23
2022-11-13T11:43:47.714Z,16.27
2022-11-13T11:46:19.091Z,21.60
2022-11-13T11:48:47.328Z,15.23
2022-11-13T11:51:26.639Z,11.50
2022-11-13T11:54:02.750Z,9.03
2022-11-13T11:56:36.554Z,9.50
2022-11-13T11:59:45.813Z,8.70
2022-11-13T12:02:59.524Z,9.67
2022-11-13T12:05:34.357Z,12.80
2022-11-13T12:08:21.652Z,10.33
2022-11-13T12:10:58.923Z,8.47
2022-11-13T12:13:31.556Z,8.90
2022-11-13T12:16:10.428Z,7.70
2022-11-13T12:18:52.527Z,7.00
2022-11-13T12:21:25.168Z,7.07
2022-11-13T12:24:20.868Z,7.20
2022-11-13T12:26:54.982Z,8.43
2022-11-13T12:29:40.251Z,7.20
2022-11-13T12:32:20.603Z,13.60
2022-11-13T12:34:52.989Z,10.40
2022-11-13T12:37:27.729Z,8.60
2022-11-13T12:39:59.238Z,7.07
2022-11-13T12:42:35.959Z,6.87
2022-11-13T12:45:15.977Z,9.47
2022-11-13T12:47:45.058Z,7.73
2022-11-13T12:50:31.422Z,6.77
2022-11-13T12:53:02.363Z,8.63
2022-11-13T12:55:32.524Z,7.83
2022-11-13T12:58:10.372Z,8.10
2022-11-13T13:00:42.584Z,8.50
2022-11-13T13:03:28.122Z,6.63
2022-11-13T13:06:10.643Z,11.23
2022-11-13T13:09:14.064Z,6.97
2022-11-13T13:11:49.204Z,10.27
2022-11-13T13:14:43.775Z,6.87
2022-11-13T13:17:22.199Z,14.90
2022-11-13T13:20:00.333Z,9.20
2022-11-13T13:22:31.904Z,7.40
2022-11-13T13:25:02.676Z,7.17
2022-11-13T13:27:33.558Z,7.53
2022-11-13T13:30:13.479Z,9.70
2022-11-13T13:32:53.655Z,10.90
2022-11-13T13:35:27.978Z,9.37
2022-11-13T13:38:03.042Z,7.80
2022-11-13T13:40:39.399Z,7.83
2022-11-13T13:43:41.233Z,6.47
2022-11-13T13:46:16.443Z,7.57
2022-11-13T13:48:47.841Z,7.57
2022-11-13T13:51:27.721Z,10.40
2022-11-13T13:53:57.801Z,8.70
2022-11-13T13:56:26.616Z,8.73
2022-11-13T13:58:55.871Z,8.33
2022-11-13T14:01:30.030Z,8.50
2022-11-13T14:04:15.558Z,9.00
2022-11-13T14:06:50.383Z,10.70
2022-11-13T14:09:20.950Z,8.67
2022-11-13T14:11:49.218Z,13.90
2022-11-13T14:14:20.762Z,7.73
2022-11-13T14:16:51.025Z,7.57
2022-11-13T14:19:21.041Z,8.07
2022-11-13T14:21:53.868Z,8.77
2022-11-13T14:24:25.038Z,9.40
2022-11-13T14:26:55.278Z,11.83
2022-11-13T14:29:32.591Z,8.40
2022-11-13T14:32:05.729Z,12.27
2022-11-13T14:34:36.839Z,12.93
2022-11-13T14:37:19.592Z,7.97
2022-11-13T14:39:50.039Z,11.57
2022-11-13T14:42:20.999Z,6.47
2022-11-13T14:44:49.748Z,8.30
2022-11-13T14:47:26.387Z,15.33
2022-11-13T14:49:56.083Z,10.10
2022-11-13T14:52:26.507Z,9.90
2022-11-13T14:55:15.189Z,11.30
2022-11-13T14:57:49.305Z,11.10
2022-11-13T15:00:18.904Z,11.93
2022-11-13T15:02:47.092Z,10.67
2022-11-13T15:05:17.195Z,11.50
2022-11-13T15:07:47.044Z,11.00
2022-11-13T15:10:18.127Z,16.77
2022-11-13T15:12:46.846Z,13.87
2022-11-13T15:15:16.583Z,21.17
2022-11-13T15:17:45.056Z,24.53
2022-11-13T15:20:18.393Z,27.00
2022-11-13T15:22:46.665Z,21.80
2022-11-13T15:25:16.740Z,19.47
2022-11-13T15:27:45.387Z,29.77
2022-11-13T15:30:14.959Z,23.30
2022-11-13T15:32:43.294Z,24.07
2022-11-13T15:35:17.441Z,21.23
2022-11-13T15:37:46.082Z,32.00
2022-11-13T15:40:14.994Z,29.60
2022-11-13T15:42:43.876Z,28.13
2022-11-13T15:45:15.742Z,40.43
2022-11-13T15:47:44.309Z,40.40
2022-11-13T15:50:14.498Z,52.20
2022-11-13T15:52:48.067Z,32.50
2022-11-13T15:55:26.930Z,63.43
2022-11-13T15:57:55.885Z,76.87
2022-11-13T16:00:26.310Z,64.93
2022-11-13T16:02:55.883Z,59.03
2022-11-13T16:05:25.604Z,46.97
2022-11-13T16:07:55.625Z,44.53
2022-11-13T16:10:26.027Z,89.30
2022-11-13T16:12:54.266Z,94.63
2022-11-13T16:15:22.709Z,71.37
2022-11-13T16:17:53.575Z,56.23
2022-11-13T16:20:21.745Z,36.83
2022-11-13T16:22:49.908Z,40.33
2022-11-13T16:25:21.333Z,41.63
2022-11-13T16:27:49.671Z,51.07
2022-11-13T16:30:20.418Z,33.63
2022-11-13T16:32:49.091Z,25.80
2022-11-13T16:35:18.777Z,34.60
2022-11-13T16:37:47.097Z,30.77
2022-11-13T16:40:23.606Z,38.43
2022-11-13T16:42:51.769Z,39.80
2022-11-13T16:45:20.914Z,35.27
2022-11-13T16:47:50.660Z,33.10
2022-11-13T16:50:20.885Z,39.60
2022-11-13T16:52:49.127Z,52.77
2022-11-13T16:55:17.786Z,34.17
2022-11-13T16:57:47.331Z,41.53
2022-11-13T17:00:17.987Z,57.80
2022-11-13T17:02:46.171Z,46.80
2022-11-13T17:05:15.745Z,64.00
2022-11-13T17:07:43.991Z,67.30
2022-11-13T17:10:30.776Z,65.53
2022-11-13T17:13:01.004Z,63.57
2022-11-13T17:15:29.159Z,72.53
2022-11-13T17:17:59.004Z,63.53
2022-11-13T17:20:27.980Z,47.63
2022-11-13T17:22:56.135Z,47.20
2022-11-13T17:25:26.879Z,41.30
2022-11-13T17:27:55.471Z,35.87
2022-11-13T17:30:25.401Z,42.03
2022-11-13T17:32:53.460Z,36.03
2022-11-13T17:35:21.689Z,40.07
2022-11-13T17:37:49.767Z,39.00
2022-11-13T17:40:18.130Z,40.40
2022-11-13T17:42:48.082Z,36.87
2022-11-13T17:45:16.324Z,32.73
2022-11-13T17:47:46.144Z,38.30
2022-11-13T17:50:15.204Z,37.93
2022-11-13T17:52:43.434Z,41.40
2022-11-13T17:55:13.181Z,36.73
2022-11-13T17:57:41.528Z,42.03
2022-11-13T18:00:11.007Z,36.07
2022-11-13T18:02:39.676Z,36.63
2022-11-13T18:05:10.063Z,44.50
2022-11-13T18:07:40.147Z,50.13
2022-11-13T18:10:10.953Z,37.50
2022-11-13T18:12:39.219Z,39.30
2022-11-13T18:15:08.161Z,41.37
2022-11-13T18:17:36.244Z,40.97
2022-11-13T18:20:04.749Z,36.00
2022-11-13T18:22:34.335Z,38.83
2022-11-13T18:25:03.412Z,34.00
2022-11-13T18:27:31.769Z,28.83
2022-11-13T18:29:59.920Z,36.17
2022-11-13T18:32:28.427Z,34.87
2022-11-13T18:34:56.588Z,32.90
2022-11-13T18:37:24.660Z,31.93
2022-11-13T18:39:54.189Z,38.63
2022-11-13T18:42:29.459Z,36.73
2022-11-13T18:45:00.559Z,31.40
2022-11-13T18:47:32.746Z,26.70
2022-11-13T18:50:01.207Z,29.10
2022-11-13T18:52:29.308Z,24.27
2022-11-13T18:54:59.039Z,32.87
2022-11-13T18:57:27.167Z,40.90
2022-11-13T18:59:55.493Z,31.17
2022-11-13T19:02:23.682Z,38.57
2022-11-13T19:04:52.635Z,31.97
2022-11-13T19:07:21.033Z,29.13
2022-11-13T19:09:50.595Z,30.37
2022-11-13T19:12:20.161Z,30.10
2022-11-13T19:14:48.223Z,25.40
2022-11-13T19:17:16.334Z,28.20
2022-11-13T19:19:44.574Z,31.40
2022-11-13T19:22:12.839Z,22.40
2022-11-13T19:24:40.909Z,28.17
2022-11-13T19:27:09.083Z,29.10
2022-11-13T19:29:38.963Z,24.00
2022-11-13T19:32:07.154Z,22.90
2022-11-13T19:34:35.530Z,17.80
2022-11-13T19:37:03.787Z,19.93
2022-11-13T19:39:32.650Z,23.77
2022-11-13T19:42:00.731Z,24.40
2022-11-13T19:44:28.855Z,24.80
2022-11-13T19:46:58.382Z,29.00
2022-11-13T19:49:27.136Z,28.33
2022-11-13T19:51:55.398Z,20.50
2022-11-13T19:54:23.537Z,23.33
2022-11-13T19:56:51.610Z,23.50
2022-11-13T19:59:19.948Z,23.13
2022-11-13T20:01:48.063Z,25.07
2022-11-13T20:04:17.553Z,31.73
2022-11-13T20:06:45.744Z,31.77
2022-11-13T20:09:13.928Z,38.53
2022-11-13T20:11:42.075Z,30.37
2022-11-13T20:14:11.747Z,30.50
2022-11-13T20:16:39.905Z,25.60
2022-11-13T20:19:08.108Z,23.97
2022-11-13T20:21:37.652Z,24.47
2022-11-13T20:24:05.906Z,20.50
2022-11-13T20:26:33.967Z,19.50
2022-11-13T20:29:02.196Z,18.80
2022-11-13T20:31:30.240Z,20.27
2022-11-13T20:33:58.848Z,16.30
2022-11-13T20:36:27.020Z,18.77
2022-11-13T20:38:58.986Z,21.50
2022-11-13T20:41:27.468Z,20.73
2022-11-13T20:43:59.515Z,19.63
2022-11-13T20:46:27.625Z,19.40
2022-11-13T20:48:55.812Z,24.93
2022-11-13T20:51:25.289Z,17.83
2022-11-13T20:53:53.867Z,18.07
2022-11-13T20:56:25.609Z,17.70
2022-11-13T20:58:53.795Z,16.43
2022-11-13T21:01:24.913Z,18.00
2022-11-13T21:03:53.998Z,16.23
2022-11-13T21:06:24.903Z,18.50
2022-11-13T21:08:53.559Z,17.67
2022-11-13T21:11:25.586Z,17.77
2022-11-13T21:13:55.578Z,21.07
2022-11-13T21:16:24.139Z,23.00
2022-11-13T21:18:52.396Z,17.10
2022-11-13T21:21:23.110Z,23.17
2022-11-13T21:23:51.248Z,18.70
2022-11-13T21:26:19.993Z,22.67
2022-11-13T21:28:49.483Z,18.83
2022-11-13T21:31:19.286Z,19.13
2022-11-13T21:33:48.710Z,22.63
2022-11-13T21:36:18.204Z,19.87
2022-11-13T21:38:46.881Z,20.20
2022-11-13T21:41:25.728Z,17.90
2022-11-13T21:43:58.401Z,24.33
2022-11-13T21:46:28.796Z,23.23
2022-11-13T21:48:58.541Z,23.57
2022-11-13T21:51:27.057Z,22.90
2022-11-13T21:53:55.511Z,22.03
2022-11-13T21:56:24.513Z,20.47
2022-11-13T21:58:52.814Z,20.30
2022-11-13T22:01:23.846Z,26.13
2022-11-13T22:03:52.639Z,23.23
2022-11-13T22:06:22.645Z,21.17
2022-11-13T22:08:57.087Z,21.30
2022-11-13T22:11:25.799Z,19.93
2022-11-13T22:13:54.279Z,25.90
2022-11-13T22:16:24.943Z,21.50
2022-11-13T22:18:56.911Z,27.07
2022-11-13T22:21:26.323Z,23.23
2022-11-13T22:23:54.639Z,21.40
2022-11-13T22:26:24.872Z,29.50
2022-11-13T22:28:54.078Z,24.17
2022-11-13T22:31:25.647Z,23.10
2022-11-13T22:33:55.480Z,26.53
2022-11-13T22:36:25.568Z,23.43
2022-11-13T22:38:54.488Z,20.40
2022-11-13T22:41:24.857Z,26.33
2022-11-13T22:43:54.380Z,24.63
2022-11-13T22:46:25.918Z,25.50
2022-11-13T22:48:55.346Z,24.53
2022-11-13T22:51:24.572Z,22.20
2022-11-13T22:53:54.450Z,27.90
2022-11-13T22:56:23.858Z,29.57
2022-11-13T22:58:53.386Z,29.50
2022-11-13T23:01:25.031Z,29.30
2022-11-13T23:03:53.853Z,29.47
2022-11-13T23:06:23.806Z,27.00
2022-11-13T23:08:52.814Z,34.83
2022-11-13T23:11:22.618Z,28.63
2022-11-13T23:13:52.351Z,28.37
2022-11-13T23:16:21.016Z,31.30
2022-11-13T23:18:50.991Z,31.70
2022-11-13T23:21:20.127Z,40.97
2022-11-13T23:23:48.290Z,29.27
2022-11-13T23:26:17.697Z,31.47
2022-11-13T23:28:45.827Z,28.60
2022-11-13T23:31:14.530Z,30.10
2022-11-13T23:33:42.912Z,36.57
2022-11-13T23:36:14.279Z,28.00
2022-11-13T23:38:43.127Z,25.83
2022-11-13T23:41:12.412Z,30.57
2022-11-13T23:44:07.816Z,24.00
2022-11-13T23:46:28.562Z,28.77
2022-11-13T23:48:56.684Z,33.80
2022-11-13T23:51:26.199Z,28.13
2022-11-13T23:53:54.332Z,30.70
2022-11-13T23:56:22.395Z,26.57
2022-11-13T23:58:53.185Z,25.70
